Time;durP1;ratioP1;P1;durP2;ratioP2;P2;SDS_P1;SDS_P2;PMS_P1;PMS_P2;Temp;Humidity;BMP_temperature;BMP_pressure;BME280_temperature;BME280_humidity;BME280_pressure;Samples;Min_cycle;Max_cycle;Signal;HPM_P1;HPM_P2
2022/01/23 00:00:02;;;;;;;63.75;26.30;;;;;;;3.46;95.11;101131.25;4987651;28;20554;-60
2022/01/23 00:02:29;;;;;;;64.40;27.67;;;;;;;3.51;95.69;101133.44;4953452;28;20497;-60
2022/01/23 00:04:54;;;;;;;64.70;26.30;;;;;;;3.49;95.83;101136.25;4954207;28;20432;-61
2022/01/23 00:07:21;;;;;;;68.00;26.80;;;;;;;3.50;95.76;101132.63;4984144;28;20061;-60
2022/01/23 00:09:46;;;;;;;61.97;26.98;;;;;;;3.48;95.40;101134.59;4981298;28;20469;-60
2022/01/23 00:12:16;;;;;;;66.82;28.05;;;;;;;3.48;95.26;101133.75;4988209;28;20049;-61
2022/01/23 00:17:33;;;;;;;66.22;26.48;;;;;;;3.48;95.66;101128.44;4984050;28;20451;-59
2022/01/23 00:19:59;;;;;;;66.78;26.65;;;;;;;3.43;95.71;101121.78;4993909;28;20064;-59
2022/01/23 00:22:33;;;;;;;75.57;29.05;;;;;;;3.43;95.53;101115.66;4994815;28;20037;-59
2022/01/23 00:30:30;;;;;;;68.03;27.90;;;;;;;3.35;96.12;101123.53;4987886;28;20154;-59
2022/01/23 00:32:57;;;;;;;70.55;28.15;;;;;;;3.34;95.73;101122.66;4971514;28;20037;-59
2022/01/23 00:35:23;;;;;;;71.15;29.08;;;;;;;3.36;95.80;101115.41;4987666;28;20141;-59
2022/01/23 00:37:48;;;;;;;65.88;27.48;;;;;;;3.32;95.44;101119.34;4985401;28;20406;-59
2022/01/23 00:40:14;;;;;;;62.90;26.17;;;;;;;3.33;95.90;101115.69;4983396;28;20068;-59
2022/01/23 00:42:39;;;;;;;62.63;26.20;;;;;;;3.34;95.95;101116.53;4991633;28;20123;-59
2022/01/23 00:47:51;;;;;;;66.60;25.77;;;;;;;3.29;96.19;101105.53;4989728;28;20184;-63
2022/01/23 00:50:16;;;;;;;66.25;26.25;;;;;;;3.28;96.10;101111.84;4980745;28;20112;-59
2022/01/23 00:52:42;;;;;;;69.03;26.65;;;;;;;3.29;96.40;101116.16;4987140;28;20045;-59
2022/01/23 00:55:07;;;;;;;62.35;25.52;;;;;;;3.34;95.93;101121.84;4982637;28;20034;-59
2022/01/23 00:57:36;;;;;;;65.70;27.52;;;;;;;3.34;95.95;101120.00;4997024;28;20034;-59
2022/01/23 01:00:05;;;;;;;71.90;27.02;;;;;;;3.34;96.13;101121.84;4990021;28;20042;-59
2022/01/23 01:02:31;;;;;;;60.10;24.80;;;;;;;3.25;96.79;101120.91;4987145;28;20057;-59
2022/01/23 01:04:56;;;;;;;70.00;27.23;;;;;;;3.19;96.90;101119.69;4984685;28;20382;-59
2022/01/23 01:07:21;;;;;;;66.80;27.20;;;;;;;3.24;96.67;101116.59;4970388;28;20030;-59
2022/01/23 01:09:50;;;;;;;69.20;27.45;;;;;;;3.26;96.56;101109.31;4972463;28;20680;-60
2022/01/23 01:12:29;;;;;;;68.90;25.90;;;;;;;3.24;96.98;101106.84;4984778;28;20569;-60
2022/01/23 01:15:19;;;;;;;70.43;26.35;;;;;;;3.26;96.64;101114.63;4986724;28;20208;-59
2022/01/23 01:31:38;;;;;;;60.33;25.25;;;;;;;3.24;96.64;101106.00;4984366;28;20050;-60
2022/01/23 01:34:16;;;;;;;56.60;24.13;;;;;;;3.18;95.78;101094.16;4984961;28;20034;-60
2022/01/23 01:36:50;;;;;;;64.22;26.65;;;;;;;3.11;96.46;101087.78;4983764;28;20046;-59
2022/01/23 01:39:18;;;;;;;64.38;25.23;;;;;;;3.20;95.89;101089.56;4986025;28;20023;-59
2022/01/23 01:41:43;;;;;;;58.47;25.88;;;;;;;3.17;95.53;101081.91;4983812;28;20046;-59
2022/01/23 01:44:09;;;;;;;71.88;28.30;;;;;;;3.17;95.78;101089.88;4986241;28;20065;-59
2022/01/23 01:46:34;;;;;;;65.70;26.38;;;;;;;3.20;95.68;101086.91;4987004;28;20303;-59
2022/01/23 01:49:00;;;;;;;69.47;27.13;;;;;;;3.22;95.71;101090.25;4988949;28;20044;-60
2022/01/23 01:51:30;;;;;;;80.22;30.20;;;;;;;3.22;95.47;101084.94;4984647;28;20042;-59
2022/01/23 01:54:02;;;;;;;70.70;28.02;;;;;;;3.27;96.05;101086.31;4988108;28;20135;-59
2022/01/23 01:56:35;;;;;;;68.43;26.48;;;;;;;3.24;95.16;101085.66;4988774;28;20034;-59
2022/01/23 02:09:28;;;;;;;67.82;26.98;;;;;;;3.26;94.97;101092.59;4984209;28;20139;-59
2022/01/23 02:17:42;;;;;;;71.45;27.30;;;;;;;3.28;94.80;101110.03;4982840;28;20053;-60
2022/01/23 02:55:14;;;;;;;75.35;28.05;;;;;;;3.19;95.67;101114.38;4979691;28;20049;-59
2022/01/23 03:00:14;;;;;;;85.88;30.20;;;;;;;3.16;95.51;101114.69;4982378;28;20034;-59
2022/01/23 03:02:45;;;;;;;91.30;31.05;;;;;;;3.13;95.52;101117.63;4987234;28;20083;-59
2022/01/23 03:05:13;;;;;;;91.90;31.45;;;;;;;3.11;95.82;101116.13;4984227;28;20034;-59
2022/01/23 03:10:20;;;;;;;83.75;30.52;;;;;;;3.19;95.76;101113.56;4978615;28;20030;-59
2022/01/23 03:16:10;;;;;;;79.65;29.23;;;;;;;3.16;95.71;101111.19;4984212;28;20050;-60
2022/01/23 03:26:56;;;;;;;78.22;27.17;;;;;;;3.26;96.26;101119.09;4997459;28;20088;-59
2022/01/23 03:29:24;;;;;;;76.53;28.90;;;;;;;3.21;95.32;101107.13;4987440;28;20472;-59
2022/01/23 03:34:23;;;;;;;75.40;27.23;;;;;;;3.16;96.64;101093.47;4982752;28;20168;-59
2022/01/23 03:36:48;;;;;;;75.85;29.80;;;;;;;3.14;96.52;101081.38;4987797;28;20109;-59
2022/01/23 03:39:14;;;;;;;76.55;27.88;;;;;;;3.11;95.83;101082.50;4992729;28;20034;-59
2022/01/23 03:41:40;;;;;;;77.20;28.48;;;;;;;3.11;95.70;101086.97;4980524;28;20046;-59
2022/01/23 03:44:08;;;;;;;79.47;28.52;;;;;;;3.09;95.60;101076.50;4995804;28;20141;-59
2022/01/23 03:51:46;;;;;;;77.07;27.00;;;;;;;3.04;96.46;101068.16;4983848;28;20061;-59
2022/01/23 03:54:13;;;;;;;90.40;31.00;;;;;;;3.02;96.42;101075.44;4984461;28;20105;-59
2022/01/23 03:56:38;;;;;;;78.97;29.02;;;;;;;2.93;96.62;101071.88;5004854;28;20053;-59
2022/01/23 03:59:04;;;;;;;76.35;27.15;;;;;;;3.08;96.51;101080.16;4993454;28;20038;-59
2022/01/23 04:01:29;;;;;;;75.90;27.33;;;;;;;3.04;97.28;101084.06;4983416;28;20049;-59
2022/01/23 04:03:59;;;;;;;91.50;29.50;;;;;;;3.10;97.09;101085.31;4985349;28;20034;-59
2022/01/23 04:06:25;;;;;;;74.78;27.27;;;;;;;3.07;96.86;101082.94;4987642;28;20165;-59
2022/01/23 04:08:50;;;;;;;75.88;27.73;;;;;;;3.15;96.30;101073.28;4989808;28;20749;-59
2022/01/23 04:11:16;;;;;;;76.03;27.52;;;;;;;3.12;96.59;101086.84;4987992;28;20062;-59
2022/01/23 04:13:56;;;;;;;76.78;27.25;;;;;;;3.13;96.16;101088.47;4988759;28;20384;-59
2022/01/23 04:45:49;;;;;;;80.55;28.05;;;;;;;3.03;96.57;101116.84;4986529;28;20257;-59
2022/01/23 05:06:58;;;;;;;82.63;28.45;;;;;;;3.15;97.79;101126.28;4986862;28;20584;-59
2022/01/23 05:09:24;;;;;;;79.47;29.48;;;;;;;3.12;97.51;101129.22;4982976;28;20034;-59
2022/01/23 05:11:58;;;;;;;80.90;27.98;;;;;;;3.05;97.15;101128.13;4990895;28;20569;-59
2022/01/23 05:14:33;;;;;;;73.22;27.50;;;;;;;3.04;97.90;101126.44;4990035;28;20038;-59
2022/01/23 05:16:59;;;;;;;72.00;27.45;;;;;;;3.08;97.83;101127.84;4992549;28;20548;-59
2022/01/23 05:19:24;;;;;;;83.18;28.17;;;;;;;3.10;98.23;101120.59;4983969;28;20088;-59
2022/01/23 05:22:19;;;;;;;82.78;31.00;;;;;;;3.08;98.27;101122.53;4987528;28;20041;-59
2022/01/23 05:24:53;;;;;;;68.88;26.92;;;;;;;3.06;99.40;101124.50;4981370;28;20034;-59
2022/01/23 05:27:18;;;;;;;72.13;27.73;;;;;;;3.01;98.85;101121.47;4983945;28;20053;-59
2022/01/23 05:29:45;;;;;;;78.60;29.30;;;;;;;3.00;98.82;101125.09;4984424;28;20038;-59
2022/01/23 05:32:12;;;;;;;86.47;31.48;;;;;;;2.98;99.25;101132.34;5015644;28;20041;-59
2022/01/23 05:34:39;;;;;;;84.60;29.70;;;;;;;3.00;99.25;101131.22;4988555;28;20504;-61
2022/01/23 05:37:04;;;;;;;84.63;30.70;;;;;;;3.00;99.50;101135.69;4995576;28;20108;-61
2022/01/23 05:39:32;;;;;;;85.85;31.40;;;;;;;3.01;99.18;101135.53;4984180;28;20519;-61
2022/01/23 05:42:04;;;;;;;94.75;31.85;;;;;;;3.05;99.55;101132.59;4984431;28;20130;-60
2022/01/23 05:44:30;;;;;;;82.72;30.20;;;;;;;2.96;99.39;101139.59;4989039;28;20117;-61
2022/01/23 05:46:55;;;;;;;92.38;32.30;;;;;;;3.03;99.84;101130.09;4987969;28;20064;-61
2022/01/23 05:49:21;;;;;;;91.10;32.53;;;;;;;2.95;100.00;101137.94;4988347;28;20494;-60
2022/01/23 05:51:47;;;;;;;85.80;31.10;;;;;;;2.93;100.00;101139.91;4986583;28;20563;-60
2022/01/23 05:54:12;;;;;;;93.28;31.08;;;;;;;2.93;100.00;101134.59;4985619;28;20045;-60
2022/01/23 05:56:37;;;;;;;95.30;30.92;;;;;;;2.98;100.00;101140.31;4986873;28;20172;-60
2022/01/23 05:59:03;;;;;;;88.00;31.92;;;;;;;2.93;100.00;101134.59;4983853;28;20484;-60
2022/01/23 06:01:28;;;;;;;89.95;32.70;;;;;;;2.96;100.00;101144.91;4986891;28;20045;-60
2022/01/23 06:03:54;;;;;;;102.88;32.92;;;;;;;2.91;100.00;101147.97;4977262;28;20030;-60
2022/01/23 06:06:19;;;;;;;88.15;30.52;;;;;;;2.88;100.00;101152.75;4987453;28;20038;-60
2022/01/23 06:08:45;;;;;;;99.03;32.80;;;;;;;2.89;100.00;101139.34;4982091;28;20038;-60
2022/01/23 06:11:10;;;;;;;87.05;30.42;;;;;;;2.91;100.00;101141.84;4984638;28;20043;-60
2022/01/23 06:13:35;;;;;;;103.93;34.00;;;;;;;2.81;100.00;101142.72;4986160;28;20511;-60
2022/01/23 06:16:01;;;;;;;101.75;34.63;;;;;;;2.79;100.00;101144.66;4981723;28;20355;-60
2022/01/23 06:18:26;;;;;;;92.93;32.72;;;;;;;2.85;100.00;101148.56;4994542;28;20041;-60
2022/01/23 06:20:52;;;;;;;102.18;33.97;;;;;;;2.84;100.00;101146.91;4970241;28;20051;-60
2022/01/23 06:23:17;;;;;;;103.85;34.28;;;;;;;2.93;100.00;101140.72;4985270;28;20038;-60
2022/01/23 06:25:44;;;;;;;101.10;32.80;;;;;;;2.87;100.00;101148.41;4980997;28;20366;-60
2022/01/23 06:28:09;;;;;;;87.70;30.73;;;;;;;2.84;100.00;101143.41;4981621;28;20034;-60
2022/01/23 06:30:35;;;;;;;95.47;33.88;;;;;;;2.85;100.00;101134.50;4985161;28;20061;-60
2022/01/23 06:33:01;;;;;;;91.53;33.28;;;;;;;2.87;100.00;101143.13;4981193;28;20044;-60
2022/01/23 06:35:27;;;;;;;99.38;33.70;;;;;;;2.87;100.00;101146.63;4984611;28;20042;-60
2022/01/23 06:37:52;;;;;;;106.65;35.53;;;;;;;2.78;100.00;101150.13;4988450;28;20056;-60
2022/01/23 06:40:18;;;;;;;101.35;34.97;;;;;;;2.78;100.00;101156.25;4992244;28;20049;-60
2022/01/23 06:42:43;;;;;;;104.88;33.20;;;;;;;2.85;100.00;101153.06;4987117;28;20037;-60
2022/01/23 06:45:09;;;;;;;100.93;32.40;;;;;;;2.90;100.00;101156.09;4981962;28;20142;-60
2022/01/23 06:47:34;;;;;;;114.55;33.15;;;;;;;3.01;100.00;101158.53;4978447;28;20468;-60
2022/01/23 06:50:00;;;;;;;121.28;39.05;;;;;;;2.91;100.00;101163.88;4983697;28;20052;-60
2022/01/23 06:52:25;;;;;;;106.97;36.33;;;;;;;2.89;100.00;101163.19;4974469;28;20038;-60
2022/01/23 06:54:51;;;;;;;112.35;34.38;;;;;;;2.96;100.00;101158.16;4984346;28;20026;-60
2022/01/23 06:57:16;;;;;;;101.53;36.53;;;;;;;2.92;100.00;101159.41;4989201;28;20037;-60
2022/01/23 06:59:41;;;;;;;101.25;34.85;;;;;;;2.91;100.00;101163.03;4986468;28;20035;-61
2022/01/23 07:02:07;;;;;;;105.53;34.55;;;;;;;2.93;100.00;101163.75;4983120;28;20045;-60
2022/01/23 07:04:32;;;;;;;92.57;33.30;;;;;;;2.93;100.00;101164.56;4981928;28;20034;-60
2022/01/23 07:06:58;;;;;;;95.03;32.33;;;;;;;2.88;100.00;101163.34;4983467;28;20041;-60
2022/01/23 07:09:23;;;;;;;91.22;31.80;;;;;;;2.76;100.00;101173.28;4980389;28;20037;-60
2022/01/23 07:11:49;;;;;;;86.18;31.65;;;;;;;2.86;100.00;101176.72;4982998;28;20504;-60
2022/01/23 07:14:14;;;;;;;96.32;32.75;;;;;;;2.90;100.00;101183.41;4981212;28;20022;-60
2022/01/23 07:16:40;;;;;;;96.18;31.58;;;;;;;2.84;100.00;101183.97;4984986;28;20042;-58
2022/01/23 07:19:05;;;;;;;72.68;29.58;;;;;;;2.65;100.00;101184.06;4987318;28;20074;-61
2022/01/23 07:21:30;;;;;;;91.72;30.70;;;;;;;2.69;100.00;101193.34;4982509;28;20050;-58
2022/01/23 07:23:56;;;;;;;82.57;30.42;;;;;;;2.64;100.00;101196.44;4985360;28;20049;-59
2022/01/23 07:26:23;;;;;;;91.43;31.92;;;;;;;2.59;100.00;101199.50;4984304;28;20030;-59
2022/01/23 07:28:50;;;;;;;91.70;32.15;;;;;;;2.66;100.00;101199.78;4984301;28;20028;-60
2022/01/23 07:31:57;;;;;;;82.07;29.02;;;;;;;2.76;100.00;101203.22;4980052;28;20577;-61
2022/01/23 07:34:09;;;;;;;107.85;33.25;;;;;;;2.83;100.00;101203.50;4981820;28;20125;-59
2022/01/23 07:36:35;;;;;;;97.82;32.58;;;;;;;2.86;100.00;101210.31;4981403;28;20050;-59
2022/01/23 07:39:00;;;;;;;97.50;32.80;;;;;;;2.81;99.77;101206.28;4981256;28;20483;-59
2022/01/23 07:41:25;;;;;;;85.75;28.75;;;;;;;2.87;100.00;101209.34;4975058;28;20776;-61
2022/01/23 07:43:52;;;;;;;98.22;33.90;;;;;;;2.84;99.79;101214.94;4970768;28;20053;-58
2022/01/23 07:46:19;;;;;;;97.80;32.35;;;;;;;2.72;100.00;101220.41;4965063;28;20047;-59
2022/01/23 07:48:44;;;;;;;92.90;33.75;;;;;;;2.65;100.00;101216.66;4968686;28;20038;-59
2022/01/23 07:51:10;;;;;;;90.68;31.95;;;;;;;2.71;100.00;101218.72;4970381;28;20421;-59
2022/01/23 07:53:35;;;;;;;88.45;30.83;;;;;;;2.81;100.00;101219.53;4964940;28;20034;-59
2022/01/23 07:56:02;;;;;;;90.72;31.20;;;;;;;2.81;100.00;101222.16;4959569;28;20035;-60
2022/01/23 07:58:28;;;;;;;86.70;30.58;;;;;;;2.90;100.00;101231.09;4958418;28;20042;-59
2022/01/23 08:00:54;;;;;;;84.07;29.38;;;;;;;2.90;99.21;101231.09;4956577;28;20051;-59
2022/01/23 08:03:19;;;;;;;85.15;28.70;;;;;;;2.94;98.16;101227.16;4960769;28;20023;-59
2022/01/23 08:05:44;;;;;;;80.18;30.30;;;;;;;2.95;98.60;101233.31;4959679;28;20065;-59
2022/01/23 08:08:10;;;;;;;92.05;31.63;;;;;;;2.78;99.07;101233.06;4962515;28;20027;-59
2022/01/23 08:10:35;;;;;;;89.97;30.13;;;;;;;2.96;100.00;101234.97;4963003;28;20043;-60
2022/01/23 08:13:03;;;;;;;89.30;32.22;;;;;;;2.93;99.27;101240.56;4966500;28;20050;-59
2022/01/23 08:15:29;;;;;;;84.45;30.02;;;;;;;3.02;99.41;101231.72;4968158;28;20125;-59
2022/01/23 08:18:02;;;;;;;84.35;30.25;;;;;;;3.08;98.93;101238.28;4983425;28;20041;-60
2022/01/23 08:20:28;;;;;;;79.32;28.08;;;;;;;3.09;99.18;101238.13;4984317;28;20038;-60
2022/01/23 08:22:54;;;;;;;91.55;29.88;;;;;;;3.03;99.25;101246.66;4981957;28;20453;-59
2022/01/23 08:25:19;;;;;;;94.70;32.58;;;;;;;3.07;99.30;101247.19;4977914;28;20169;-60
2022/01/23 08:27:44;;;;;;;90.95;32.05;;;;;;;3.21;100.00;101247.56;4985032;28;20037;-59
2022/01/23 08:30:12;;;;;;;90.65;31.23;;;;;;;3.20;99.54;101245.91;4981958;28;20085;-59
2022/01/23 08:32:37;;;;;;;77.18;30.17;;;;;;;2.96;99.29;101240.28;4985901;28;20037;-60
2022/01/23 08:35:04;;;;;;;75.07;26.90;;;;;;;2.96;99.61;101253.50;4984747;28;20116;-60
2022/01/23 08:37:30;;;;;;;77.93;27.42;;;;;;;3.00;98.63;101247.78;4991436;28;20445;-59
2022/01/23 08:39:55;;;;;;;87.30;31.45;;;;;;;2.93;99.40;101257.28;4993728;28;20033;-59
2022/01/23 08:42:21;;;;;;;88.57;34.05;;;;;;;2.98;99.31;101254.22;4990082;28;20038;-60
2022/01/23 08:44:47;;;;;;;90.28;31.08;;;;;;;3.04;100.00;101256.28;4996358;28;20026;-59
2022/01/23 08:47:12;;;;;;;88.05;29.90;;;;;;;3.06;99.78;101254.31;4986681;28;20430;-60
2022/01/23 08:49:44;;;;;;;87.88;29.33;;;;;;;3.15;99.96;101253.47;4989007;28;20890;-59
2022/01/23 08:52:10;;;;;;;73.00;28.48;;;;;;;3.10;98.95;101254.88;4993731;28;20038;-60
2022/01/23 08:54:35;;;;;;;82.07;29.63;;;;;;;3.07;98.86;101248.06;4988098;28;20456;-59
2022/01/23 08:57:01;;;;;;;79.95;29.50;;;;;;;3.15;98.69;101250.81;4981242;28;20046;-59
2022/01/23 08:59:26;;;;;;;95.32;30.17;;;;;;;3.17;98.40;101248.00;4977538;28;20263;-59
2022/01/23 09:01:52;;;;;;;80.93;29.98;;;;;;;3.27;98.15;101242.66;4981043;28;20057;-59
2022/01/23 09:04:17;;;;;;;77.75;29.48;;;;;;;3.32;97.69;101245.72;4985270;28;20468;-61
2022/01/23 09:06:43;;;;;;;75.57;30.35;;;;;;;3.31;98.09;101250.19;4971339;28;20046;-62
2022/01/23 09:09:15;;;;;;;96.13;31.17;;;;;;;3.34;97.97;101239.28;4973435;28;20396;-59
2022/01/23 09:11:53;;;;;;;88.00;30.98;;;;;;;3.40;98.29;101232.59;4978987;28;20567;-62
2022/01/23 09:14:20;;;;;;;84.75;29.73;;;;;;;3.41;98.61;101236.91;4996992;28;20031;-62
2022/01/23 09:16:46;;;;;;;85.35;32.63;;;;;;;3.41;98.77;101234.25;4986506;28;20061;-62
2022/01/23 09:19:12;;;;;;;84.38;31.30;;;;;;;3.40;99.30;101240.53;4991671;28;20065;-60
2022/01/23 09:21:38;;;;;;;93.28;32.05;;;;;;;3.38;99.80;101239.84;4999042;28;20062;-60
2022/01/23 09:24:04;;;;;;;87.05;31.92;;;;;;;3.43;99.63;101237.59;4986588;28;20030;-60
2022/01/23 09:26:30;;;;;;;87.88;31.48;;;;;;;3.47;99.64;101244.28;5006214;28;20034;-61
2022/01/23 09:28:59;;;;;;;92.10;33.92;;;;;;;3.43;98.89;101254.31;4969579;28;20095;-60
2022/01/23 09:31:48;;;;;;;88.32;34.70;;;;;;;3.44;99.47;101249.84;4992801;28;20104;-60
2022/01/23 09:34:34;;;;;;;89.25;34.88;;;;;;;3.48;99.16;101259.19;4995692;28;20026;-61
2022/01/23 09:37:02;;;;;;;96.22;33.72;;;;;;;3.51;99.39;101255.41;4981589;28;20104;-60
2022/01/23 09:39:28;;;;;;;92.57;34.42;;;;;;;3.48;98.48;101261.00;4996883;28;20543;-61
2022/01/23 09:42:05;;;;;;;86.18;34.17;;;;;;;3.47;98.24;101257.53;4987078;28;20053;-60
2022/01/23 09:44:32;;;;;;;88.30;32.03;;;;;;;3.54;98.49;101261.25;4984008;28;20185;-60
2022/01/23 09:46:57;;;;;;;83.95;33.30;;;;;;;3.52;98.70;101257.94;4986263;28;20097;-59
2022/01/23 09:49:23;;;;;;;88.18;33.58;;;;;;;3.51;98.46;101256.25;4989441;28;20069;-59
2022/01/23 09:51:49;;;;;;;104.22;36.42;;;;;;;3.53;98.33;101262.22;4999421;28;20069;-59
2022/01/23 09:54:15;;;;;;;96.68;33.38;;;;;;;3.60;98.53;101265.16;5008670;28;20810;-60
2022/01/23 09:56:41;;;;;;;87.88;34.58;;;;;;;3.59;98.22;101266.94;4987606;28;20031;-60
2022/01/23 09:59:11;;;;;;;89.00;32.05;;;;;;;3.58;97.89;101267.94;4988811;28;20125;-59
2022/01/23 10:01:38;;;;;;;72.15;29.67;;;;;;;3.46;96.77;101259.31;4985640;28;20046;-59
2022/01/23 10:04:04;;;;;;;69.75;28.38;;;;;;;3.54;97.06;101271.03;4985769;28;20026;-60
2022/01/23 10:06:29;;;;;;;72.32;28.88;;;;;;;3.54;96.78;101266.53;4980422;28;20047;-60
2022/01/23 10:08:54;;;;;;;81.93;29.48;;;;;;;3.48;96.51;101258.38;4988503;28;20061;-59
2022/01/23 10:11:20;;;;;;;80.55;30.13;;;;;;;3.56;96.40;101269.88;4986207;28;20045;-59
2022/01/23 10:13:45;;;;;;;72.95;28.83;;;;;;;3.60;96.97;101270.44;4983974;28;20034;-60
2022/01/23 10:16:11;;;;;;;78.53;28.98;;;;;;;3.64;97.28;101261.19;4988922;28;20163;-59
2022/01/23 10:18:37;;;;;;;82.65;29.25;;;;;;;3.70;97.78;101262.44;4992954;28;20496;-60
2022/01/23 10:21:02;;;;;;;72.38;26.88;;;;;;;3.74;96.46;101261.16;4989498;28;20326;-59
2022/01/23 10:23:28;;;;;;;72.07;27.52;;;;;;;3.79;96.48;101269.50;4987982;28;20101;-59
2022/01/23 10:25:54;;;;;;;70.03;27.17;;;;;;;3.79;96.14;101258.88;4988881;28;20114;-59
2022/01/23 10:28:24;;;;;;;69.25;27.05;;;;;;;3.82;95.88;101258.56;4986623;28;20060;-59
2022/01/23 10:30:56;;;;;;;72.15;28.70;;;;;;;3.80;96.81;101266.72;4985985;28;20053;-60
2022/01/23 10:33:26;;;;;;;72.93;27.67;;;;;;;3.75;96.66;101265.50;4986943;28;20385;-60
2022/01/23 10:35:56;;;;;;;65.57;26.08;;;;;;;3.94;96.26;101265.34;4985165;28;20103;-59
2022/01/23 10:38:22;;;;;;;;;;;;;;;3.99;96.00;101260.44;4989913;28;20403;-59
2022/01/23 10:41:01;;;;;;;71.38;26.92;;;;;;;3.93;96.27;101271.66;4989721;28;20360;-59
2022/01/23 10:48:58;;;;;;;78.20;28.30;;;;;;;3.91;95.60;101267.47;4989757;28;20054;-59
2022/01/23 10:51:25;;;;;;;67.85;25.75;;;;;;;3.96;95.55;101260.75;4985592;28;20458;-59
2022/01/23 10:54:02;;;;;;;62.33;26.83;;;;;;;3.98;95.03;101264.06;4981956;28;20039;-60
2022/01/23 10:56:30;;;;;;;69.95;27.90;;;;;;;4.00;95.06;101261.28;4981765;28;20060;-59
2022/01/23 10:59:05;;;;;;;78.55;28.98;;;;;;;4.03;94.97;101261.81;4982612;28;20499;-59
2022/01/23 11:01:30;;;;;;;76.80;27.50;;;;;;;4.03;94.85;101260.97;4982457;28;20066;-60
2022/01/23 11:04:08;;;;;;;74.03;27.33;;;;;;;3.99;94.57;101265.72;4985197;28;20045;-59
2022/01/23 11:06:33;;;;;;;65.38;26.50;;;;;;;3.98;95.50;101258.78;4982630;28;20050;-59
2022/01/23 11:09:09;;;;;;;73.55;28.30;;;;;;;4.04;95.01;101260.84;4986799;28;20061;-60
2022/01/23 11:11:46;;;;;;;70.05;26.38;;;;;;;4.08;94.49;101256.06;4999401;28;20133;-60
2022/01/23 11:19:43;;;;;;;73.82;26.83;;;;;;;4.32;93.76;101240.38;4988852;28;20042;-60
2022/01/23 11:22:43;;;;;;;75.63;29.52;;;;;;;4.30;94.09;101242.34;4986042;28;20165;-59
2022/01/23 11:25:09;;;;;;;;;;;;;;;4.30;93.94;101241.50;4975724;28;20042;-60
2022/01/23 11:27:37;;;;;;;75.82;28.27;;;;;;;4.45;93.48;101236.50;4982400;28;19921;-60
2022/01/23 11:30:08;;;;;;;74.50;28.13;;;;;;;4.44;92.62;101233.00;4989625;28;20025;-60
2022/01/23 11:32:37;;;;;;;75.07;28.98;;;;;;;4.53;92.90;101232.06;4987297;28;20034;-60
2022/01/23 11:35:08;;;;;;;80.57;29.63;;;;;;;4.52;92.86;101227.75;4989525;28;20092;-62
2022/01/23 11:37:34;;;;;;;73.88;28.15;;;;;;;4.65;92.34;101229.19;4989284;28;20731;-59
2022/01/23 11:40:07;;;;;;;68.38;27.73;;;;;;;4.61;91.90;101227.81;4989111;28;20041;-61
2022/01/23 11:51:23;;;;;;;59.80;25.35;;;;;;;4.51;91.74;101217.28;4994022;28;20041;-61
2022/01/23 11:53:46;;;;;;;66.32;26.25;;;;;;;4.74;91.23;101218.47;4988392;28;20046;-60
2022/01/23 11:56:23;;;;;;;68.72;25.58;;;;;;;4.76;91.41;101221.78;4986637;28;20377;-60
2022/01/23 11:58:50;;;;;;;62.35;25.67;;;;;;;4.78;89.91;101218.97;4989349;28;20093;-59
2022/01/23 12:01:20;;;;;;;62.72;24.40;;;;;;;4.78;90.08;101223.47;4970247;28;20656;-59
2022/01/23 12:04:11;;;;;;;61.40;24.90;;;;;;;4.76;90.16;101219.09;4984454;28;20019;-61
2022/01/23 12:06:42;;;;;;;56.58;21.67;;;;;;;4.80;89.05;101211.69;4986790;28;20072;-62
2022/01/23 12:09:10;;;;;;;50.35;19.83;;;;;;;4.89;89.12;101218.72;4988726;28;20034;-60
2022/01/23 12:11:47;;;;;;;49.33;21.17;;;;;;;4.87;89.04;101215.38;4986835;28;20039;-60
2022/01/23 12:16:50;;;;;;;60.25;24.23;;;;;;;4.76;89.17;101210.31;4993959;28;20042;-59
2022/01/23 12:19:19;;;;;;;59.38;23.05;;;;;;;4.89;89.97;101216.06;4999347;28;20120;-59
2022/01/23 12:21:45;;;;;;;58.63;23.85;;;;;;;4.85;89.69;101206.72;4982056;28;20141;-60
2022/01/23 12:24:12;;;;;;;62.83;28.75;;;;;;;4.77;87.72;101201.38;4992903;28;20027;-60
2022/01/23 12:26:38;;;;;;;54.08;23.33;;;;;;;4.64;88.30;101206.25;4990374;28;20057;-59
2022/01/23 12:29:11;;;;;;;56.28;22.23;;;;;;;4.83;87.65;101210.53;4997068;28;20083;-60
2022/01/23 12:31:37;;;;;;;48.85;19.42;;;;;;;4.97;87.14;101202.81;5009423;28;20044;-59
2022/01/23 12:34:02;;;;;;;49.42;20.70;;;;;;;4.85;85.82;101205.91;4998629;28;20507;-62
2022/01/23 12:36:32;;;;;;;50.20;21.08;;;;;;;4.83;85.64;101199.91;4992099;28;20068;-61
2022/01/23 12:39:06;;;;;;;50.00;19.43;;;;;;;4.91;86.02;101192.81;4999865;28;20037;-62
2022/01/23 12:41:36;;;;;;;47.95;20.13;;;;;;;4.85;84.55;101182.81;4987410;28;20288;-60
2022/01/23 12:44:05;;;;;;;55.55;23.33;;;;;;;4.92;87.40;101186.50;4992072;28;20097;-61
2022/01/23 12:46:38;;;;;;;52.22;23.27;;;;;;;4.94;86.83;101184.53;4993410;28;20034;-61
2022/01/23 12:49:25;;;;;;;54.67;20.98;;;;;;;4.91;86.61;101176.03;4991822;28;20533;-60
2022/01/23 12:51:52;;;;;;;49.60;20.52;;;;;;;5.01;85.71;101173.25;4996822;28;20836;-60
2022/01/23 12:54:20;;;;;;;56.17;22.23;;;;;;;4.98;85.79;101169.94;4989242;28;20038;-61
2022/01/23 12:56:48;;;;;;;63.42;23.65;;;;;;;4.88;86.81;101171.88;4990161;28;20092;-61
2022/01/23 12:59:23;;;;;;;61.75;21.88;;;;;;;5.11;89.53;101164.16;4988417;28;20092;-61
2022/01/23 13:01:54;;;;;;;56.03;22.42;;;;;;;5.03;86.15;101173.94;4982940;28;20034;-61
2022/01/23 13:04:19;;;;;;;51.33;21.42;;;;;;;5.07;85.29;101159.34;4979773;28;20040;-60
2022/01/23 13:06:51;;;;;;;46.42;20.52;;;;;;;5.24;86.42;101162.88;4987977;28;20064;-61
2022/01/23 13:09:55;;;;;;;47.83;20.88;;;;;;;5.16;83.98;101163.69;4975124;28;20049;-61
2022/01/23 13:31:06;;;;;;;44.90;18.73;;;;;;;5.11;82.39;101166.00;4987686;28;20060;-61
2022/01/23 13:33:32;;;;;;;45.03;19.55;;;;;;;4.86;84.19;101168.53;4984474;28;20048;-61
2022/01/23 13:36:01;;;;;;;54.83;23.65;;;;;;;4.86;85.64;101163.22;4982433;28;20536;-61
2022/01/23 13:38:32;;;;;;;57.53;23.30;;;;;;;4.92;85.91;101167.91;4984072;28;20034;-61
2022/01/23 13:41:05;;;;;;;48.88;21.00;;;;;;;5.17;84.88;101166.22;4984392;28;20046;-61
2022/01/23 13:54:19;;;;;;;256.67;84.90;;;;;;;4.71;84.38;101159.47;4983593;28;20042;-61
2022/01/23 14:02:17;;;;;;;62.65;28.50;;;;;;;4.88;82.88;101163.91;4988206;28;20497;-60
2022/01/23 14:04:46;;;;;;;55.42;22.92;;;;;;;4.80;82.92;101163.84;4985158;28;20022;-60
2022/01/23 14:07:11;;;;;;;49.42;20.05;;;;;;;4.76;83.73;101159.84;4987264;28;20145;-60
2022/01/23 14:09:43;;;;;;;53.95;25.65;;;;;;;4.86;83.04;101157.06;4982960;28;20056;-60
2022/01/23 14:12:13;;;;;;;51.08;23.52;;;;;;;4.79;83.20;101167.50;4985014;28;20085;-60
2022/01/23 14:14:52;;;;;;;48.47;21.40;;;;;;;4.42;84.48;101160.63;4983180;28;20030;-60
2022/01/23 14:17:18;;;;;;;47.63;19.42;;;;;;;4.52;84.43;101165.84;4982815;28;20046;-60
2022/01/23 14:20:05;;;;;;;51.33;21.05;;;;;;;4.66;84.10;101164.44;4986254;28;20022;-61
2022/01/23 14:22:32;;;;;;;51.80;21.63;;;;;;;4.58;84.34;101164.38;4983675;28;20434;-60
2022/01/23 14:25:20;;;;;;;50.10;21.45;;;;;;;4.29;83.91;101168.16;4983989;28;20093;-61
2022/01/23 14:27:51;;;;;;;43.47;18.70;;;;;;;4.29;83.08;101170.81;5012183;28;20580;-60
2022/01/23 14:30:22;;;;;;;58.95;22.75;;;;;;;4.34;84.73;101168.50;4985607;28;20030;-60
2022/01/23 14:32:52;;;;;;;53.60;22.02;;;;;;;4.35;84.71;101167.53;4981519;28;20556;-60
2022/01/23 14:35:24;;;;;;;58.50;23.90;;;;;;;4.44;84.39;101168.44;4983784;28;20271;-60
2022/01/23 14:37:51;;;;;;;63.88;23.38;;;;;;;4.31;85.68;101174.97;4985766;28;20426;-60
2022/01/23 14:40:27;;;;;;;51.83;19.77;;;;;;;4.53;84.78;101171.00;4983560;28;20065;-61
2022/01/23 14:43:12;;;;;;;56.80;22.33;;;;;;;4.44;85.29;101171.06;4980007;28;20577;-60
2022/01/23 14:45:44;;;;;;;78.75;26.50;;;;;;;4.28;85.44;101171.81;4982318;28;20057;-60